createdAt,value
2022-08-18T00:00:01.166Z,100606.63
2022-08-18T00:02:30.738Z,100606.16
2022-08-18T00:04:58.535Z,100605.47
2022-08-18T00:07:31.765Z,100608.09
2022-08-18T00:10:00.824Z,100601.94
2022-08-18T00:12:41.128Z,100608.16
2022-08-18T00:15:14.746Z,100607.88
2022-08-18T00:17:41.921Z,100602.09
2022-08-18T00:20:16.634Z,100609.66
2022-08-18T00:22:43.668Z,100608.78
2022-08-18T00:25:13.981Z,100598.22
2022-08-18T00:27:41.448Z,100604.00
2022-08-18T00:30:15.908Z,100599.34
2022-08-18T00:32:47.930Z,100604.00
2022-08-18T00:35:31.470Z,100606.94
2022-08-18T00:38:06.214Z,100591.88
2022-08-18T00:40:41.977Z,100600.59
2022-08-18T00:43:19.238Z,100604.06
2022-08-18T00:45:46.656Z,100607.13
2022-08-18T00:48:14.855Z,100611.06
2022-08-18T00:50:54.567Z,100617.28
2022-08-18T00:53:31.865Z,100624.47
2022-08-18T00:56:17.174Z,100618.66
2022-08-18T00:59:00.065Z,100621.59
2022-08-18T01:01:31.164Z,100635.25
2022-08-18T01:04:12.973Z,100638.34
2022-08-18T01:06:48.546Z,100640.59
2022-08-18T01:09:17.809Z,100644.91
2022-08-18T01:11:45.659Z,100638.66
2022-08-18T01:14:16.088Z,100647.56
2022-08-18T01:17:06.025Z,100641.78
2022-08-18T01:19:52.118Z,100645.03
2022-08-18T01:22:30.446Z,100649.19
2022-08-18T01:25:23.577Z,100638.97
2022-08-18T01:27:57.133Z,100645.81
2022-08-18T01:30:28.293Z,100647.03
2022-08-18T01:32:55.240Z,100642.09
2022-08-18T01:35:25.617Z,100648.38
2022-08-18T01:37:54.045Z,100649.59
2022-08-18T01:41:22.004Z,100651.00
2022-08-18T01:43:11.859Z,100636.66
2022-08-18T01:45:39.935Z,100628.13
2022-08-18T01:48:07.380Z,100636.47
2022-08-18T01:50:36.474Z,100638.56
2022-08-18T01:53:05.827Z,100626.44
2022-08-18T01:55:35.960Z,100639.56
2022-08-18T01:58:03.583Z,100631.38
2022-08-18T02:00:32.366Z,100643.84
2022-08-18T02:03:02.775Z,100642.81
2022-08-18T02:05:41.119Z,100642.97
2022-08-18T02:08:10.690Z,100652.56
2022-08-18T02:10:39.042Z,100644.88
2022-08-18T02:13:06.421Z,100646.94
2022-08-18T02:15:33.379Z,100637.19
2022-08-18T02:18:00.966Z,100650.00
2022-08-18T02:20:27.962Z,100657.72
2022-08-18T02:22:55.077Z,100651.59
2022-08-18T02:25:23.123Z,100647.16
2022-08-18T02:27:51.257Z,100656.56
2022-08-18T02:30:19.638Z,100656.91
2022-08-18T02:32:46.550Z,100653.16
2022-08-18T02:35:13.525Z,100644.78
2022-08-18T02:37:42.642Z,100653.47
2022-08-18T02:40:15.139Z,100657.38
2022-08-18T02:42:44.776Z,100661.31
2022-08-18T02:45:13.263Z,100657.38
2022-08-18T02:47:41.127Z,100641.19
2022-08-18T02:50:11.035Z,100634.50
2022-08-18T02:52:40.514Z,100633.00
2022-08-18T02:55:08.183Z,100639.47
2022-08-18T02:57:35.278Z,100646.97
2022-08-18T03:00:02.315Z,100646.16
2022-08-18T03:02:29.255Z,100645.63
2022-08-18T03:04:56.237Z,100641.34
2022-08-18T03:07:23.201Z,100642.88
2022-08-18T03:09:50.162Z,100640.50
2022-08-18T03:12:17.078Z,100646.16
2022-08-18T03:14:44.010Z,100644.09
2022-08-18T03:17:11.081Z,100625.00
2022-08-18T03:19:38.533Z,100633.75
2022-08-18T03:22:27.172Z,100636.63
2022-08-18T03:24:55.780Z,100633.91
2022-08-18T03:27:23.146Z,100629.16
2022-08-18T03:29:51.232Z,100633.41
2022-08-18T03:32:18.774Z,100634.97
2022-08-18T03:34:45.723Z,100631.38
2022-08-18T03:37:14.063Z,100632.09
2022-08-18T03:39:41.065Z,100633.91
2022-08-18T03:42:08.625Z,100635.47
2022-08-18T03:44:37.324Z,100635.31
2022-08-18T03:47:09.208Z,100632.59
2022-08-18T03:49:37.722Z,100628.16
2022-08-18T03:52:08.163Z,100637.19
2022-08-18T03:54:35.365Z,100631.91
2022-08-18T03:57:02.368Z,100632.09
2022-08-18T03:59:31.943Z,100623.91
2022-08-18T04:02:02.123Z,100628.78
2022-08-18T04:04:29.650Z,100638.53
2022-08-18T04:07:10.021Z,100631.00
2022-08-18T04:09:38.643Z,100633.59
2022-08-18T04:12:16.411Z,100633.22
2022-08-18T04:14:48.410Z,100627.63
2022-08-18T04:17:24.338Z,100640.25
2022-08-18T04:19:53.647Z,100634.78
2022-08-18T04:22:21.224Z,100627.63
2022-08-18T04:24:50.047Z,100626.75
2022-08-18T04:27:19.526Z,100647.72
2022-08-18T04:29:47.151Z,100646.34
2022-08-18T04:32:14.566Z,100645.16
2022-08-18T04:34:41.606Z,100645.34
2022-08-18T04:37:09.726Z,100659.84
2022-08-18T04:39:37.471Z,100661.53
2022-08-18T04:42:05.792Z,100665.31
2022-08-18T04:44:32.889Z,100667.16
2022-08-18T04:47:01.647Z,100654.72
2022-08-18T04:49:28.627Z,100653.41
2022-08-18T04:52:39.394Z,100653.38
2022-08-18T04:55:03.054Z,100668.88
2022-08-18T04:57:34.923Z,100671.59
2022-08-18T05:00:04.657Z,100678.44
2022-08-18T05:02:33.018Z,100687.66
2022-08-18T05:05:03.282Z,100683.41
2022-08-18T05:07:30.379Z,100683.19
2022-08-18T05:09:57.364Z,100679.22
2022-08-18T05:12:26.311Z,100691.78
2022-08-18T05:14:57.189Z,100686.72
2022-08-18T05:17:29.050Z,100682.25
2022-08-18T05:20:02.091Z,100692.53
2022-08-18T05:22:30.566Z,100683.84
2022-08-18T05:24:59.975Z,100678.25
2022-08-18T05:27:35.601Z,100682.88
2022-08-18T05:30:04.676Z,100676.78
2022-08-18T05:32:49.221Z,100688.50
2022-08-18T05:35:28.451Z,100693.91
2022-08-18T05:38:26.166Z,100693.81
2022-08-18T05:41:19.662Z,100689.81
2022-08-18T05:43:51.502Z,100688.16
2022-08-18T05:46:26.636Z,100687.31
2022-08-18T05:48:53.613Z,100684.75
2022-08-18T05:51:31.477Z,100682.19
2022-08-18T05:54:17.978Z,100680.34
2022-08-18T05:56:46.466Z,100686.66
2022-08-18T05:59:28.834Z,100696.91
2022-08-18T06:02:21.293Z,100699.38
2022-08-18T06:04:55.997Z,100701.97
2022-08-18T06:07:35.382Z,100695.50
2022-08-18T06:10:05.188Z,100692.94
2022-08-18T06:12:46.665Z,100696.78
2022-08-18T06:15:24.263Z,100699.38
2022-08-18T06:18:25.351Z,100694.56
2022-08-18T06:21:39.010Z,100697.59
2022-08-18T06:24:35.207Z,100695.88
2022-08-18T06:27:09.936Z,100703.25
2022-08-18T06:30:08.447Z,100708.13
2022-08-18T06:32:53.558Z,100700.31
2022-08-18T06:35:55.473Z,100705.72
2022-08-18T06:38:59.216Z,100726.25
2022-08-18T06:41:51.367Z,100721.25
2022-08-18T06:44:34.252Z,100717.66
2022-08-18T06:47:45.395Z,100718.91
2022-08-18T06:50:36.594Z,100720.06
2022-08-18T06:53:08.377Z,100719.88
2022-08-18T06:55:55.430Z,100708.66
2022-08-18T06:58:30.216Z,100715.19
2022-08-18T07:01:02.619Z,100716.78
2022-08-18T07:03:56.191Z,100723.03
2022-08-18T07:06:23.079Z,100731.44
2022-08-18T07:08:53.754Z,100724.38
2022-08-18T07:11:33.296Z,100730.31
2022-08-18T07:14:16.822Z,100726.38
2022-08-18T07:16:58.345Z,100727.88
2022-08-18T07:19:30.319Z,100730.59
2022-08-18T07:22:16.867Z,100735.41
2022-08-18T07:24:47.682Z,100736.19
2022-08-18T07:27:20.243Z,100735.41
2022-08-18T07:30:15.775Z,100742.91
2022-08-18T07:32:53.459Z,100752.91
2022-08-18T07:35:51.150Z,100753.19
2022-08-18T07:38:42.733Z,100756.56
2022-08-18T07:41:36.937Z,100758.91
2022-08-18T07:44:25.858Z,100758.41
2022-08-18T07:47:23.182Z,100747.97
2022-08-18T07:50:15.693Z,100741.63
2022-08-18T07:52:47.394Z,100754.53
2022-08-18T07:55:29.838Z,100757.56
2022-08-18T07:58:22.268Z,100749.16
2022-08-18T08:01:01.579Z,100754.38
2022-08-18T08:03:45.645Z,100755.09
2022-08-18T08:06:22.882Z,100762.34
2022-08-18T08:09:23.627Z,100763.59
2022-08-18T08:12:01.626Z,100759.34
2022-08-18T08:14:53.487Z,100759.19
2022-08-18T08:17:33.525Z,100759.66
2022-08-18T08:20:13.649Z,100756.72
2022-08-18T08:23:45.043Z,100762.41
2022-08-18T08:26:33.490Z,100771.94
2022-08-18T08:29:27.676Z,100767.72
2022-08-18T08:32:22.778Z,100760.75
2022-08-18T08:34:59.131Z,100772.97
2022-08-18T08:37:58.300Z,100775.81
2022-08-18T08:41:04.017Z,100783.13
2022-08-18T08:43:41.030Z,100788.81
2022-08-18T08:46:23.415Z,100786.34
2022-08-18T08:48:59.794Z,100786.63
2022-08-18T08:51:36.165Z,100785.28
2022-08-18T08:54:23.227Z,100788.13
2022-08-18T08:56:53.221Z,100785.25
2022-08-18T08:59:22.478Z,100789.03
2022-08-18T09:02:27.020Z,100786.09
2022-08-18T09:06:10.452Z,100783.25
2022-08-18T09:09:10.222Z,100782.16
2022-08-18T09:11:55.931Z,100773.00
2022-08-18T09:14:52.976Z,100776.38
2022-08-18T09:18:07.065Z,100771.47
2022-08-18T09:21:04.344Z,100770.69
2022-08-18T09:23:45.722Z,100779.78
2022-08-18T09:26:39.042Z,100780.88
2022-08-18T09:29:49.904Z,100760.44
2022-08-18T09:32:23.967Z,100772.53
2022-08-18T09:35:20.066Z,100766.69
2022-08-18T09:38:15.635Z,100769.91
2022-08-18T09:41:24.321Z,100784.03
2022-08-18T09:44:17.815Z,100784.78
2022-08-18T09:46:48.213Z,100788.19
2022-08-18T09:49:24.892Z,100783.91
2022-08-18T09:51:58.319Z,100794.00
2022-08-18T09:54:32.618Z,100804.16
2022-08-18T09:57:24.294Z,100794.41
2022-08-18T09:59:59.648Z,100793.06
2022-08-18T10:02:29.362Z,100804.00
2022-08-18T10:05:29.662Z,100802.03
2022-08-18T10:08:01.537Z,100800.44
2022-08-18T10:11:20.489Z,100803.72
2022-08-18T10:14:12.182Z,100804.44
2022-08-18T10:22:58.073Z,100787.50
2022-08-18T10:25:46.399Z,100795.66
2022-08-18T10:28:57.252Z,100795.16
2022-08-18T10:31:27.298Z,100789.47
2022-08-18T10:34:16.603Z,100794.19
2022-08-18T10:36:59.116Z,100791.84
2022-08-18T10:39:42.229Z,100804.72
2022-08-18T10:42:53.487Z,100797.59
2022-08-18T10:45:24.633Z,100791.44
2022-08-18T10:48:29.888Z,100791.97
2022-08-18T10:51:21.665Z,100794.28
2022-08-18T10:54:24.653Z,100808.06
2022-08-18T10:57:08.594Z,100816.75
2022-08-18T11:00:12.100Z,100803.09
2022-08-18T11:03:50.019Z,100800.91
2022-08-18T11:09:02.387Z,100799.50
2022-08-18T11:15:22.679Z,100801.97
2022-08-18T11:18:30.206Z,100793.19
2022-08-18T11:21:41.967Z,100782.03
2022-08-18T11:24:21.770Z,100779.22
2022-08-18T11:27:04.576Z,100770.22
2022-08-18T11:29:44.260Z,100767.38
2022-08-18T11:32:30.868Z,100769.34
2022-08-18T11:34:59.530Z,100769.78
2022-08-18T11:37:48.884Z,100756.25
2022-08-18T11:46:28.218Z,100768.94
2022-08-18T11:49:01.234Z,100766.47
2022-08-18T11:51:32.121Z,100766.06
2022-08-18T11:57:58.705Z,100765.91
2022-08-18T12:00:43.019Z,100756.28
2022-08-18T12:03:37.431Z,100747.91
2022-08-18T12:06:28.211Z,100745.75
2022-08-18T12:09:04.016Z,100734.59
2022-08-18T12:14:35.184Z,100729.50
2022-08-18T12:17:03.164Z,100740.56
2022-08-18T12:19:34.554Z,100732.19
2022-08-18T12:22:15.517Z,100731.00
2022-08-18T12:24:46.586Z,100717.91
2022-08-18T12:27:21.267Z,100727.97
2022-08-18T12:30:07.338Z,100711.38
2022-08-18T12:32:50.853Z,100708.59
2022-08-18T12:35:23.645Z,100710.66
2022-08-18T12:38:05.061Z,100718.50
2022-08-18T12:40:40.163Z,100716.22
2022-08-18T12:43:07.231Z,100713.69
2022-08-18T12:45:34.793Z,100714.63
2022-08-18T12:48:06.809Z,100719.06
2022-08-18T12:50:49.753Z,100717.97
2022-08-18T12:56:30.248Z,100698.22
2022-08-18T12:59:04.905Z,100694.25
2022-08-18T13:01:33.967Z,100697.72
2022-08-18T13:04:11.237Z,100686.28
2022-08-18T13:06:59.367Z,100661.78
2022-08-18T13:09:42.793Z,100665.34
2022-08-18T13:12:19.528Z,100664.59
2022-08-18T13:14:47.552Z,100676.94
2022-08-18T13:17:30.312Z,100688.00
2022-08-18T13:20:14.383Z,100694.34
2022-08-18T13:22:41.800Z,100692.38
2022-08-18T13:25:12.838Z,100701.56
2022-08-18T13:30:31.497Z,100687.81
2022-08-18T13:33:05.218Z,100691.69
2022-08-18T13:35:54.185Z,100694.47
2022-08-18T13:38:27.313Z,100694.59
2022-08-18T13:40:59.566Z,100701.31
2022-08-18T13:43:37.215Z,100708.78
2022-08-18T13:46:09.239Z,100718.59
2022-08-18T13:48:37.845Z,100721.47
2022-08-18T13:51:08.340Z,100729.38
2022-08-18T13:53:50.375Z,100706.81
2022-08-18T13:56:19.667Z,100717.16
2022-08-18T13:58:53.421Z,100710.53
2022-08-18T14:01:45.014Z,100706.81
2022-08-18T14:04:12.360Z,100701.03
2022-08-18T14:06:40.114Z,100698.41
2022-08-18T14:09:19.534Z,100698.69
2022-08-18T14:11:51.172Z,100695.31
2022-08-18T14:14:18.574Z,100697.31
2022-08-18T14:16:45.457Z,100691.28
2022-08-18T14:19:31.731Z,100698.66
2022-08-18T14:22:17.775Z,100698.50
2022-08-18T14:25:04.418Z,100695.03
2022-08-18T14:27:37.562Z,100681.94
2022-08-18T14:30:09.780Z,100689.09
2022-08-18T14:32:49.114Z,100677.78
2022-08-18T14:35:33.017Z,100683.19
2022-08-18T14:38:09.798Z,100683.84
2022-08-18T14:40:43.189Z,100685.25
2022-08-18T14:43:14.089Z,100678.16
2022-08-18T14:45:48.860Z,100687.34
2022-08-18T14:48:20.234Z,100674.78
2022-08-18T14:50:52.293Z,100676.03
2022-08-18T14:53:23.300Z,100673.47
2022-08-18T14:55:52.434Z,100667.56
2022-08-18T14:58:28.656Z,100673.97
2022-08-18T15:00:59.162Z,100670.88
2022-08-18T15:03:31.569Z,100664.06
2022-08-18T15:06:04.875Z,100673.72
2022-08-18T15:08:35.390Z,100669.94
2022-08-18T15:11:06.085Z,100672.59
2022-08-18T15:13:42.195Z,100671.72
2022-08-18T15:16:13.469Z,100673.09
2022-08-18T15:18:42.727Z,100669.00
2022-08-18T15:21:43.532Z,100660.47
2022-08-18T15:24:29.332Z,100657.66
2022-08-18T15:27:05.819Z,100650.72
2022-08-18T15:29:34.218Z,100655.59
2022-08-18T15:32:26.056Z,100656.75
2022-08-18T15:34:53.712Z,100656.81
2022-08-18T15:37:22.190Z,100665.50
2022-08-18T15:40:02.811Z,100668.75
2022-08-18T15:42:30.214Z,100664.78
2022-08-18T15:45:11.973Z,100659.97
2022-08-18T15:47:41.405Z,100662.97
2022-08-18T15:50:25.671Z,100671.03
2022-08-18T15:53:00.936Z,100662.72
2022-08-18T15:55:35.932Z,100669.00
2022-08-18T15:58:04.764Z,100670.56
2022-08-18T16:00:42.268Z,100664.78
2022-08-18T16:03:14.581Z,100668.75
2022-08-18T16:05:54.484Z,100672.22
2022-08-18T16:08:24.193Z,100676.59
2022-08-18T16:10:52.563Z,100675.47
2022-08-18T16:13:20.159Z,100663.63
2022-08-18T16:15:49.820Z,100666.59
2022-08-18T16:18:19.862Z,100661.75
2022-08-18T16:20:47.395Z,100663.31
2022-08-18T16:23:14.621Z,100657.78
2022-08-18T16:25:43.311Z,100646.41
2022-08-18T16:28:13.191Z,100658.78
2022-08-18T16:30:40.995Z,100654.28
2022-08-18T16:33:08.057Z,100658.50
2022-08-18T16:35:37.156Z,100649.78
2022-08-18T16:38:09.363Z,100650.94
2022-08-18T16:40:37.561Z,100655.44
2022-08-18T16:43:05.804Z,100651.63
2022-08-18T16:45:35.851Z,100658.84
2022-08-18T16:48:03.314Z,100659.38
2022-08-18T16:50:30.261Z,100657.56
2022-08-18T16:52:57.729Z,100654.66
2022-08-18T16:55:24.881Z,100657.59
2022-08-18T16:58:15.271Z,100652.88
2022-08-18T17:01:01.931Z,100658.19
2022-08-18T17:03:48.075Z,100650.81
2022-08-18T17:06:18.430Z,100662.63
2022-08-18T17:08:46.193Z,100657.84
2022-08-18T17:11:18.296Z,100650.94
2022-08-18T17:13:48.406Z,100651.28
2022-08-18T17:16:17.819Z,100653.19
2022-08-18T17:18:45.155Z,100658.69
2022-08-18T17:21:16.193Z,100665.50
2022-08-18T17:23:43.296Z,100667.22
2022-08-18T17:26:53.112Z,100658.53
2022-08-18T17:29:35.595Z,100668.38
2022-08-18T17:32:47.087Z,100663.16
2022-08-18T17:35:34.268Z,100671.03
2022-08-18T17:38:08.353Z,100657.09
2022-08-18T17:40:49.752Z,100659.03
2022-08-18T17:43:21.252Z,100659.31
2022-08-18T17:46:14.736Z,100666.16
2022-08-18T17:48:55.490Z,100670.47
2022-08-18T17:51:43.382Z,100668.38
2022-08-18T17:54:39.307Z,100672.63
2022-08-18T17:57:32.497Z,100668.41
2022-08-18T18:00:09.974Z,100674.56
2022-08-18T18:02:42.636Z,100672.69
2022-08-18T18:05:12.832Z,100662.06
2022-08-18T18:07:51.363Z,100665.88
2022-08-18T18:11:05.392Z,100680.56
2022-08-18T18:13:34.240Z,100681.84
2022-08-18T18:16:30.041Z,100674.81
2022-08-18T18:19:02.950Z,100678.44
2022-08-18T18:21:55.301Z,100687.13
2022-08-18T18:24:30.661Z,100693.53
2022-08-18T18:26:58.294Z,100691.19
2022-08-18T18:29:32.412Z,100700.09
2022-08-18T18:32:23.933Z,100692.91
2022-08-18T18:35:17.262Z,100693.16
2022-08-18T18:37:49.698Z,100695.22
2022-08-18T18:40:36.612Z,100698.63
2022-08-18T18:43:35.745Z,100705.19
2022-08-18T18:46:23.052Z,100707.72
2022-08-18T18:49:21.559Z,100717.50
2022-08-18T18:52:00.890Z,100719.41
2022-08-18T18:54:44.227Z,100726.81
2022-08-18T18:58:06.906Z,100733.50
2022-08-18T19:00:53.382Z,100730.91
2022-08-18T19:03:35.257Z,100735.56
2022-08-18T19:06:14.160Z,100730.66
2022-08-18T19:09:01.557Z,100740.38
2022-08-18T19:12:24.733Z,100736.69
2022-08-18T19:14:59.586Z,100739.41
2022-08-18T19:17:41.483Z,100739.75
2022-08-18T19:20:16.228Z,100733.75
2022-08-18T19:23:05.686Z,100739.25
2022-08-18T19:25:44.231Z,100727.16
2022-08-18T19:29:12.575Z,100730.50
2022-08-18T19:31:50.516Z,100732.75
2022-08-18T19:34:31.317Z,100740.06
2022-08-18T19:37:18.322Z,100738.88
2022-08-18T19:40:22.226Z,100742.63
2022-08-18T19:43:01.267Z,100738.75
2022-08-18T19:46:05.561Z,100730.94
2022-08-18T19:48:54.007Z,100738.31
2022-08-18T19:51:39.210Z,100734.91
2022-08-18T19:54:36.601Z,100731.09
2022-08-18T19:57:37.344Z,100730.88
2022-08-18T20:00:16.431Z,100737.16
2022-08-18T20:03:10.113Z,100733.94
2022-08-18T20:06:34.259Z,100733.00
2022-08-18T20:09:34.374Z,100736.75
2022-08-18T20:12:22.111Z,100743.44
2022-08-18T20:15:23.071Z,100742.75
2022-08-18T20:17:58.941Z,100749.31
2022-08-18T20:20:30.610Z,100737.84
2022-08-18T20:22:59.555Z,100747.34
2022-08-18T20:25:42.800Z,100747.94
2022-08-18T20:28:09.646Z,100745.06
2022-08-18T20:31:13.156Z,100740.56
2022-08-18T20:33:46.752Z,100735.41
2022-08-18T20:36:28.046Z,100737.47
2022-08-18T20:38:58.592Z,100726.19
2022-08-18T20:41:45.434Z,100730.13
2022-08-18T20:44:29.404Z,100731.53
2022-08-18T20:47:09.476Z,100741.38
2022-08-18T20:50:21.552Z,100746.63
2022-08-18T20:53:21.705Z,100742.94
2022-08-18T20:55:57.444Z,100754.28
2022-08-18T20:58:37.881Z,100759.28
2022-08-18T21:01:05.091Z,100759.34
2022-08-18T21:03:44.560Z,100765.03
2022-08-18T21:06:15.328Z,100759.44
2022-08-18T21:08:52.286Z,100763.13
2022-08-18T21:11:38.580Z,100770.25
2022-08-18T21:14:05.933Z,100767.38
2022-08-18T21:16:45.089Z,100769.47
2022-08-18T21:19:25.326Z,100771.59
2022-08-18T21:22:02.523Z,100773.19
2022-08-18T21:24:50.149Z,100759.22
2022-08-18T21:27:38.991Z,100759.78
2022-08-18T21:30:16.757Z,100772.81
2022-08-18T21:32:46.799Z,100775.44
2022-08-18T21:35:34.200Z,100769.97
2022-08-18T21:38:12.180Z,100768.34
2022-08-18T21:40:46.332Z,100765.97
2022-08-18T21:43:33.947Z,100761.19
2022-08-18T21:46:03.299Z,100769.41
2022-08-18T21:48:32.110Z,100781.59
2022-08-18T21:51:01.960Z,100787.63
2022-08-18T21:53:35.129Z,100796.00
2022-08-18T21:56:02.365Z,100804.41
2022-08-18T21:58:45.140Z,100796.56
2022-08-18T22:01:22.044Z,100802.22
2022-08-18T22:03:50.128Z,100802.59
2022-08-18T22:06:40.210Z,100803.78
2022-08-18T22:09:28.670Z,100800.41
2022-08-18T22:12:49.545Z,100791.50
2022-08-18T22:15:28.800Z,100789.78
2022-08-18T22:18:07.036Z,100796.31
2022-08-18T22:20:55.929Z,100789.78
2022-08-18T22:23:58.600Z,100804.88
2022-08-18T22:26:37.690Z,100800.13
2022-08-18T22:29:18.713Z,100795.19
2022-08-18T22:31:50.573Z,100795.25
2022-08-18T22:34:27.730Z,100798.91
2022-08-18T22:37:19.298Z,100796.03
2022-08-18T22:40:04.939Z,100795.53
2022-08-18T22:42:34.193Z,100802.38
2022-08-18T22:45:09.091Z,100802.91
2022-08-18T22:47:42.704Z,100806.81
2022-08-18T22:50:11.169Z,100796.06
2022-08-18T22:52:43.928Z,100796.78
2022-08-18T22:55:14.401Z,100793.56
2022-08-18T22:57:42.903Z,100793.22
2022-08-18T23:00:18.123Z,100786.41
2022-08-18T23:02:47.681Z,100781.47
2022-08-18T23:05:15.176Z,100786.44
2022-08-18T23:07:42.653Z,100780.47
2022-08-18T23:10:13.945Z,100792.06
2022-08-18T23:12:46.450Z,100791.41
2022-08-18T23:15:15.360Z,100794.31
2022-08-18T23:17:43.367Z,100783.75
2022-08-18T23:20:17.928Z,100784.28
2022-08-18T23:22:45.918Z,100791.28
2022-08-18T23:25:13.436Z,100789.41
2022-08-18T23:27:41.213Z,100781.25
2022-08-18T23:30:09.164Z,100780.09
2022-08-18T23:32:36.329Z,100776.97
2022-08-18T23:35:03.929Z,100780.25
2022-08-18T23:37:31.520Z,100784.19
2022-08-18T23:39:58.841Z,100789.66
2022-08-18T23:42:25.935Z,100796.66
2022-08-18T23:44:52.889Z,100790.34
2022-08-18T23:47:20.971Z,100797.50
2022-08-18T23:49:48.958Z,100803.31
2022-08-18T23:52:17.469Z,100802.81
2022-08-18T23:54:44.372Z,100815.59
2022-08-18T23:57:11.344Z,100814.06
2022-08-18T23:59:38.289Z,100807.41
